Flight Track Log - Related Links

Times and Time Zones

All times are in EDT time to prevent confusion due to time zone crossing. See the TCF5992 flight status page for this flight to view local times or setup timezone preferences in your user account.

Time Position Orientation Groundspeed Altitude Reporting Facility
EDT Latitude Longitude Course Direction KTS MPH feet Rate Location/Type
Fri 09:29:18 PM 32.9400 -97.0519 332° Northwest 155 178 2,800  Level Fort Worth Center
Fri 09:30:20 PM 32.9961 -97.0525 360° North 199 229 5,300 2,683 Climbing Fort Worth Center
Fri 09:31:21 PM 33.0597 -97.0617 353° North 226 260 8,300 3,317 Climbing Fort Worth Center
Fri 09:32:23 PM 33.1322 -97.0703 354° North 240 276 12,100 2,878 Climbing Fort Worth Center
Fri 09:33:24 PM 33.2000 -97.0781 355° North 248 285 14,200 2,016 Climbing Fort Worth Center
Fri 09:34:00 PM 33.2398 -96.9720 332° Northwest  Level FlightAware Approximate
Fri 09:34:25 PM 33.2822 -97.0883 354° North 297 342 16,200  Level Fort Worth Center
Fri 09:35:27 PM 33.3725 -97.0989 354° North 332 382 18,100 1,902 Climbing Fort Worth Center
Fri 09:36:28 PM 33.4783 -97.1061 357° North 355 409 20,100 1,854 Climbing Fort Worth Center
Fri 09:37:30 PM 33.5858 -97.0917 North 381 438 21,900 1,707 Climbing Fort Worth Center
Fri 09:38:31 PM 33.6958 -97.0772 North 395 455 23,600 1,220 Climbing Fort Worth Center
Fri 09:39:33 PM 33.8092 -97.0608 North 408 470 24,400 878 Climbing Fort Worth Center
Fri 09:40:34 PM 33.9278 -97.0131 18° North 447 514 25,400 1,024 Climbing Fort Worth Center
Fri 09:41:36 PM 34.0481 -96.9506 23° Northeast 466 536 26,500 1,073 Climbing Fort Worth Center
Fri 09:42:37 PM 34.1706 -96.8811 25° Northeast 476 548 27,600 927 Climbing Fort Worth Center
Fri 09:43:39 PM 34.2875 -96.8136 25° Northeast 480 552 28,400 829 Climbing Fort Worth Center
Fri 09:44:40 PM 34.3911 -96.6531 52° Northeast 508 585 29,300 1,659 Climbing Fort Worth Center
Fri 09:45:42 PM 34.4664 -96.5164 56° Northeast 501 577 31,800 1,805 Climbing Fort Worth Center
Fri 09:46:43 PM 34.5369 -96.3906 56° Northeast 467 537 33,000 878 Climbing Fort Worth Center
Fri 09:47:45 PM 34.6144 -96.2528 56° Northeast 461 531 33,600 488 Climbing Fort Worth Center
Fri 09:48:46 PM 34.6825 -96.1269 57° Northeast 477 549 34,000 439 Climbing Fort Worth Center
Fri 09:49:48 PM 34.7722 -95.9697 55° Northeast 499 574 34,500 488 Climbing Fort Worth Center
Fri 09:50:49 PM 34.8403 -95.8433 57° Northeast 510 587 35,000 244 Climbing Fort Worth Center
Fri 09:51:51 PM 34.9281 -95.6822 56° Northeast 506 582 35,000  Level Fort Worth Center
Fri 09:52:52 PM 35.0047 -95.5411 56° Northeast 496 571 35,000  Level Fort Worth Center
Fri 09:53:54 PM 35.0864 -95.3914 56° Northeast 501 577 35,000  Level Fort Worth Center
Fri 09:54:55 PM 35.1631 -95.2492 57° Northeast 501 577 35,000 49 Level Fort Worth Center
Fri 09:55:56 PM 35.2361 -95.1139 57° Northeast 501 577 35,100 277 Climbing Fort Worth Center
Fri 09:57:05 PM 35.3308 -94.9331 57° Northeast 517 595 35,600 595 Climbing Memphis Center
Fri 09:58:07 PM 35.4106 -94.7828 57° Northeast 523 602 36,400 683 Climbing Memphis Center
Fri 09:59:08 PM 35.4894 -94.6342 57° Northeast 523 602 37,000 295 Climbing Memphis Center
Fri 10:00:09 PM 35.5683 -94.4853 57° Northeast 523 602 37,000  Level Memphis Center
Fri 10:01:10 PM 35.6636 -94.3033 57° Northeast 524 603 37,000  Level Memphis Center
Fri 10:02:11 PM 35.7436 -94.1522 57° Northeast 524 603 37,000  Level Memphis Center
Fri 10:03:12 PM 35.8225 -93.9997 57° Northeast 527 606 37,000  Level Memphis Center
Fri 10:04:13 PM 35.9019 -93.8458 57° Northeast 527 606 37,000  Level Memphis Center
Fri 10:05:14 PM 35.9817 -93.6900 58° Northeast 528 608 37,000  Level Memphis Center
Fri 10:06:15 PM 36.0617 -93.5339 58° Northeast 531 611 37,000  Level Memphis Center
Fri 10:07:16 PM 36.1417 -93.3769 58° Northeast 533 613 37,000  Level Memphis Center
Fri 10:08:17 PM 36.2231 -93.2169 58° Northeast 538 619 37,000  Level Memphis Center
Fri 10:09:18 PM 36.3044 -93.0575 58° Northeast 542 624 37,000  Level Memphis Center
Fri 10:10:19 PM 36.3842 -92.8983 58° Northeast 542 624 37,000  Level Memphis Center
Fri 10:11:20 PM 36.4642 -92.7406 58° Northeast 542 624 37,000  Level Memphis Center
Fri 10:12:21 PM 36.5411 -92.5889 58° Northeast 542 624 37,000  Level Memphis Center
Fri 10:13:22 PM 36.6197 -92.4303 58° Northeast 542 624 37,000  Level Memphis Center
Fri 10:14:23 PM 36.7147 -92.2389 58° Northeast 541 623 37,000  Level Memphis Center
Fri 10:15:24 PM 36.7922 -92.0789 59° Northeast 541 623 37,000  Level Memphis Center
Fri 10:16:25 PM 36.8694 -91.9197 59° Northeast 540 621 37,000  Level Memphis Center
Fri 10:17:26 PM 36.9483 -91.7606 58° Northeast 539 620 37,000 -393 Level Memphis Center
Fri 10:18:27 PM 37.0256 -91.6003 59° Northeast 539 620 36,200 -1,770 Descending Memphis Center
Fri 10:19:28 PM 37.1028 -91.4364 59° Northeast 543 625 33,400 -2,803 Descending Memphis Center
Fri 10:20:29 PM 37.1803 -91.2769 59° Northeast 542 624 30,500 -2,876 Descending Memphis Center
Fri 10:21:29 PM 37.2533 -91.1253 59° Northeast 524 603 27,600 -1,736 Descending Memphis Center
Fri 10:22:30 PM 37.3244 -90.9761 59° Northeast 508 585 27,000 -396 Descending Memphis Center
Fri 10:23:00 PM 37.3506 -90.9178 61° Northeast 494 568 27,000  Level Kansas City Center
Fri 10:24:00 PM 37.4319 -90.7494 59° Northeast 518 596 27,000  Level Kansas City Center
Fri 10:25:02 PM 37.5075 -90.5897 59° Northeast 530 610 27,000  Level Kansas City Center
Fri 10:26:05 PM 37.5819 -90.4289 60° Northeast 530 610 27,000  Level Kansas City Center
Fri 10:27:06 PM 37.6675 -90.2311 61° Northeast 536 617 27,000  Level Kansas City Center
Fri 10:28:06 PM 37.6931 -90.0514 80° East 529 609 27,000  Level Kansas City Center
Fri 10:29:08 PM 37.7133 -89.8706 82° East 529 609 27,000  Level Kansas City Center
Fri 10:30:11 PM 37.7325 -89.6911 82° East 524 603 27,000  Level Kansas City Center
Fri 10:31:12 PM 37.7517 -89.5108 82° East 524 603 27,000  Level Kansas City Center
Fri 10:32:14 PM 37.7719 -89.3111 83° East 524 603 27,000  Level Kansas City Center
Fri 10:33:14 PM 37.7906 -89.1272 83° East 524 603 27,000  Level Kansas City Center
Fri 10:34:17 PM 37.8094 -88.9439 83° East 524 603 27,000  Level Kansas City Center
Fri 10:35:18 PM 37.8289 -88.7472 83° East 524 603 27,000  Level Kansas City Center
Fri 10:36:19 PM 37.8489 -88.5711 82° East 523 602 27,000  Level Kansas City Center
Fri 10:37:18 PM 37.8664 -88.3950 83° East 512 589 27,000  Level Kansas City Center
Fri 10:38:12 PM 37.8833 -88.2242 83° East 494 568 27,000  Level Indianapolis Center
Fri 10:39:13 PM 37.9000 -88.0514 83° East 494 568 27,000 197 Level Indianapolis Center
Fri 10:40:14 PM 37.9167 -87.8792 83° East 494 568 27,400 885 Climbing Indianapolis Center
Fri 10:41:15 PM 37.9611 -87.7106 71° East 507 583 28,800 1,377 Climbing Indianapolis Center
Fri 10:42:16 PM 38.0500 -87.5700 51° Northeast 510 587 30,200 1,317 Climbing Indianapolis Center
Fri 10:43:18 PM 38.1400 -87.4306 51° Northeast 510 587 31,500 1,317 Climbing Indianapolis Center
Fri 10:44:19 PM 38.2303 -87.2883 51° Northeast 510 587 32,900 738 Climbing Indianapolis Center
Fri 10:45:20 PM 38.3247 -87.1381 51° Northeast 513 590 33,000 49 Climbing Indianapolis Center
Fri 10:46:21 PM 38.4194 -86.9875 51° Northeast 530 610 33,000  Level Indianapolis Center
Fri 10:47:22 PM 38.5217 -86.8236 51° Northeast 549 632 33,000  Level Indianapolis Center
Fri 10:48:23 PM 38.6186 -86.6686 51° Northeast 551 634 33,000  Level Indianapolis Center
Fri 10:49:24 PM 38.7150 -86.5128 52° Northeast 552 635 33,000 590 Level Indianapolis Center
Fri 10:50:25 PM 38.8106 -86.3569 52° Northeast 553 636 34,200 976 Climbing Indianapolis Center
Fri 10:51:27 PM 38.8953 -86.2206 51° Northeast 549 632 35,000 390 Climbing Indianapolis Center
Fri 10:52:28 PM 39.0089 -86.0344 52° Northeast 552 635 35,000  Level Indianapolis Center
Fri 10:53:29 PM 39.1039 -85.8767 52° Northeast 558 642 35,000  Level Indianapolis Center
Fri 10:54:30 PM 39.1983 -85.7194 52° Northeast 558 642 35,000  Level Indianapolis Center
Fri 10:55:32 PM 39.2928 -85.5617 52° Northeast 558 642 35,000  Level Indianapolis Center
Fri 10:56:32 PM 39.3917 -85.4117 50° Northeast 558 642 35,000  Level Indianapolis Center
Fri 10:57:34 PM 39.4836 -85.2511 53° Northeast 558 642 35,000  Level Indianapolis Center
Fri 10:58:35 PM 39.5719 -85.0839 56° Northeast 559 643 35,000  Level Indianapolis Center
Fri 10:59:36 PM 39.6606 -84.9161 56° Northeast 563 648 35,000  Level Indianapolis Center
Fri 11:00:37 PM 39.7567 -84.7317 56° Northeast 564 649 35,000  Level Indianapolis Center
Fri 11:01:38 PM 39.8439 -84.5625 56° Northeast 564 649 35,000  Level Indianapolis Center
Fri 11:02:40 PM 39.9322 -84.3928 56° Northeast 564 649 35,000  Level Indianapolis Center
Fri 11:03:41 PM 40.0208 -84.2206 56° Northeast 564 649 35,000  Level Indianapolis Center
Fri 11:04:42 PM 40.1094 -84.0497 56° Northeast 565 650 35,000  Level Indianapolis Center
Fri 11:05:43 PM 40.1956 -83.8789 57° Northeast 564 649 35,000  Level Indianapolis Center
Fri 11:06:44 PM 40.2831 -83.7072 56° Northeast 562 647 35,000  Level Indianapolis Center
Fri 11:07:45 PM 40.3692 -83.5339 57° Northeast 562 647 35,000  Level Indianapolis Center
Fri 11:08:47 PM 40.4742 -83.3275 56° Northeast 562 647 35,000  Level Indianapolis Center
Fri 11:09:48 PM 40.5569 -83.1567 57° Northeast 559 643 35,000  Level Indianapolis Center
Fri 11:10:49 PM 40.6308 -83.0036 58° Northeast 540 621 35,000  Level Indianapolis Center
Fri 11:11:50 PM 40.6647 -82.8133 77° East 530 610 35,000  Level Indianapolis Center
Fri 11:12:51 PM 40.6911 -82.6222 80° East 528 608 35,000  Level Indianapolis Center
Fri 11:13:52 PM 40.7181 -82.4308 79° East 528 608 35,000  Level Indianapolis Center
Fri 11:14:53 PM 40.7436 -82.2378 80° East 528 608 35,000  Level Indianapolis Center
Fri 11:15:55 PM 40.7725 -82.0153 80° East 528 608 35,000  Level Indianapolis Center
Fri 11:16:56 PM 40.7978 -81.8242 80° East 528 608 35,000  Level Indianapolis Center
Fri 11:17:44 PM 40.8139 -81.6961 81° East 529 609 35,000  Level Cleveland Center
Fri 11:18:45 PM 40.8431 -81.4703 80° East 531 611 35,000  Level Cleveland Center
Fri 11:19:46 PM 40.8667 -81.2786 81° East 530 610 35,000  Level Cleveland Center
Fri 11:20:47 PM 40.8911 -81.0831 81° East 535 616 35,000  Level Cleveland Center
Fri 11:21:48 PM 40.9142 -80.8967 81° East 535 616 35,000  Level Cleveland Center
Fri 11:22:49 PM 40.9375 -80.7047 81° East 532 612 35,000 -590 Level Cleveland Center
Fri 11:23:50 PM 40.9603 -80.5097 81° East 532 612 33,800 -984 Descending Cleveland Center
Fri 11:24:51 PM 40.9822 -80.3161 81° East 533 613 33,000 -393 Descending Cleveland Center
Fri 11:25:52 PM 41.0050 -80.1228 81° East 532 612 33,000  Level Cleveland Center
Fri 11:26:53 PM 41.0283 -79.9275 81° East 532 612 33,000  Level Cleveland Center
Fri 11:28:00 PM 41.0303 -79.7303 89° East  Level FlightAware Approximate
Fri 11:28:55 PM 41.0506 -79.5439 89° East 519 597 33,000  Level Cleveland Center
Fri 11:29:56 PM 41.0511 -79.3511 90° East 519 597 33,000  Level Cleveland Center
Fri 11:30:57 PM 41.0511 -79.1597 90° East 519 597 33,000  Level Cleveland Center
Fri 11:31:57 PM 41.0511 -78.9697 90° East 518 596 33,000  Level Cleveland Center
Fri 11:32:58 PM 41.0500 -78.7800 90° East 515 593 33,000 -738 Level Cleveland Center
Fri 11:33:59 PM 41.0503 -78.5858 90° East 520 598 31,500 -984 Descending Cleveland Center
Fri 11:35:00 PM 41.0397 -78.3503 93° East 531 611 31,000 -246 Descending Cleveland Center
Fri 11:36:01 PM 41.0261 -78.1853 96° East 532 612 31,000  Level Cleveland Center
Fri 11:37:02 PM 41.0069 -77.9522 96° East 535 616 31,000  Level Cleveland Center
Fri 11:38:02 PM 40.9906 -77.7578 96° East 536 617 31,000 -350 Level Cleveland Center
Fri 11:39:02 PM 40.9747 -77.5653 96° East 525 604 30,300 -1,600 Descending New York Center
Fri 11:40:02 PM 40.9567 -77.3683 97° East 525 604 27,800 -2,350 Descending New York Center
Fri 11:41:02 PM 40.9408 -77.2047 97° East 519 597 25,600 -2,050 Descending New York Center
Fri 11:42:02 PM 40.9250 -77.0303 97° East 498 573 23,700 -1,650 Descending New York Center
Fri 11:43:02 PM 40.9089 -76.8611 97° East 476 548 22,300 -1,400 Descending New York Center
Fri 11:44:02 PM 40.8922 -76.6978 98° East 463 533 20,900 -1,400 Descending New York Center
Fri 11:45:02 PM 40.8686 -76.5392 101° East 450 518 19,500 -1,450 Descending New York Center
Fri 11:46:02 PM 40.8406 -76.3858 104° East 432 497 18,000 -1,450 Descending New York Center
Fri 11:47:02 PM 40.8106 -76.2272 104° East 414 476 16,600 -1,350 Descending New York Center
Fri 11:48:02 PM 40.7817 -76.0822 105° East 409 471 15,300 -800 Descending New York Center
Fri 11:49:02 PM 40.7583 -75.9544 104° East 404 465 15,000 -650 Descending New York Center
Fri 11:50:02 PM 40.7292 -75.8097 105° East 404 465 14,000 -1,500 Descending New York Center
Fri 11:51:02 PM 40.6981 -75.6569 105° East 399 459 12,000 -1,850 Descending New York Center
Fri 11:52:02 PM 40.6739 -75.5319 104° East 394 453 10,300 -1,000 Descending New York Center
Fri 11:53:02 PM 40.6461 -75.3961 105° East 387 445 10,000 -150 Descending New York Center
Fri 11:54:02 PM 40.6200 -75.2631 104° East 382 440 10,000  Level New York Center
Fri 11:55:02 PM 40.5919 -75.1192 104° East 382 440 10,000  Level New York Center
Fri 11:56:02 PM 40.5614 -74.9833 106° East 382 440 10,000  Level New York Center
Fri 11:57:02 PM 40.5225 -74.8500 111° Southeast 382 440 10,000 56 Level New York Center
Fri 11:57:50 PM 40.5000 -74.7500 106° East 377 434 10,100 56 Climbing New York TRACON
Fri 11:58:50 PM 40.4500 -74.6167 116° Southeast 380 437 10,100  Level New York TRACON
Fri 11:59:50 PM 40.4333 -74.4833 99° East 364 419 10,100 -700 Level New York TRACON
Sat 12:00:50 AM 40.4667 -74.3833 66° East 312 359 8,700 -1,429 Descending New York TRACON
Sat 12:01:56 AM 40.5000 -74.2667 69° East 308 354 7,100 -1,048 Descending New York TRACON
Sat 12:02:56 AM 40.5333 -74.1667 66° East 304 350 6,500 -1,238 Descending New York TRACON
Sat 12:04:02 AM 40.6000 -74.0833 43° Northeast 292 336 4,500 -1,200 Descending New York TRACON
Sat 12:04:56 AM 40.6500 -74.0167 45° Northeast 288 331 4,100 -211 Descending New York TRACON
Sat 12:05:56 AM 40.7000 -73.9500 45° Northeast 294 338 4,100  Level New York TRACON
Sat 12:07:02 AM 40.7500 -73.8333 60° Northeast 297 342 4,100 -476 Level New York TRACON
Sat 12:08:02 AM 40.8167 -73.7833 30° Northeast 269 310 3,100 -526 Descending New York TRACON
Sat 12:08:56 AM 40.8667 -73.7500 27° Northeast 207 238 3,100 -368 Level New York TRACON
Sat 12:09:56 AM 40.8667 -73.7833 270° West 134 154 2,400 -895 Descending New York TRACON
Sat 12:10:50 AM 40.8500 -73.8167 237° Southwest 119 137 1,400 -850 Descending New York TRACON
Sat 12:11:56 AM 40.8167 -73.8500 217° Southwest 125 144 700 -636 Descending New York TRACON

Login

Don't have an account? Register now (free) for customized features, flight alerts, and more!